Grandeur Of The Seas — C6SE3 — position and weather

sailwx.info

Track history (hours):
 
Tides and Currents Weather Stations Pressure Air Temp Water Temp Dewpoint Dewpoint Depression Visibility Wind Speed Wind Dir Waves Ship Positions

Grandeur Of The Seas

Operator: Royal Caribbean Cruises Ltd

Last reported at 2016-Jun-26 23:17 UTC. Time now 2016-Jun-27 05:58 UTC.
Position N 43°28' W 069°54'.

Type: Passenger vessel. MMSI: 311315000.

Date/timePositionNaut miles runAvg speedWind from/ knotsBaromVisibWave heightAir tempDewpointWater temp
2016-Jun-26 23:17N 43°28' W 069°54'19 6.9
2016-Jun-26 20:32N 43°40' W 070°15'0 0.0
2016-Jun-26 19:32N 43°40' W 070°15'0 0.0
2016-Jun-26 17:26N 43°40' W 070°15'15 2.1
2016-Jun-26 10:10N 43°27' W 070°02'914.5
2016-Jun-26 09:33N 43°19' W 069°58'2713.7
2016-Jun-26 07:33N 42°52' W 070°03'1514.5
2016-Jun-26 06:34N 42°39' W 070°12'1514.9
2016-Jun-26 05:34N 42°25' W 070°20'1312.9
2016-Jun-26 04:33N 42°19' W 070°35'1414.4
2016-Jun-26 03:33N 42°23' W 070°54'6 5.7
2016-Jun-26 02:31N 42°21' W 071°02'0 0.0
2016-Jun-26 01:31N 42°21' W 071°02'0 0.0
2016-Jun-26 00:31N 42°21' W 071°02'0 0.0
2016-Jun-25 23:31N 42°21' W 071°02'0 0.0
2016-Jun-25 22:31N 42°21' W 071°02'0 0.0
2016-Jun-25 21:31N 42°21' W 071°02'0 0.0
2016-Jun-25 20:31N 42°21' W 071°02'0 0.0
2016-Jun-25 19:31N 42°21' W 071°02'0 0.0
2016-Jun-25 18:31N 42°21' W 071°02'0 0.0
2016-Jun-25 17:28N 42°21' W 071°02'0 0.0
2016-Jun-25 16:31N 42°21' W 071°02'0 0.0
2016-Jun-25 15:31N 42°21' W 071°02'0 0.0
2016-Jun-25 14:31N 42°21' W 071°02'0 0.3
2016-Jun-25 13:33N 42°21' W 071°01'9 8.5
2016-Jun-25 12:33N 42°24' W 070°50'1616.3
2016-Jun-25 11:34N 42°21' W 070°29'1818.3
2016-Jun-25 10:33N 42°19' W 070°04'1818.2
2016-Jun-25 09:34N 42°05' W 069°50'1313.0
2016-Jun-25 08:33N 41°53' W 069°42'1010.1
2016-Jun-25 07:34N 41°44' W 069°36'10 9.9
2016-Jun-25 06:33N 41°35' W 069°30'10 9.9
2016-Jun-25 05:33N 41°26' W 069°24'916.5
2016-Jun-25 05:00N 41°18' W 069°18'3 4.7 100 / 121020.710.8 14.513.716.8
2016-Jun-25 04:17N 41°15' W 069°16'37518.5
2016-Jun-24 08:00N 37°06' W 075°18'6710.3 260 / 181011.310.8 22.519.623.7
2016-Jun-24 01:27N 37°58' W 076°11'5318.4
2016-Jun-23 22:33N 38°51' W 076°24'1615.5
2016-Jun-23 21:33N 39°06' W 076°24'1211.9
2016-Jun-23 20:33N 39°15' W 076°34'2 1.8
2016-Jun-23 19:31N 39°16' W 076°36'0 0.0
2016-Jun-23 18:31N 39°16' W 076°36'0 0.0
2016-Jun-23 17:31N 39°16' W 076°36'0 0.0
2016-Jun-23 16:31N 39°16' W 076°36'0 0.0
2016-Jun-23 15:31N 39°16' W 076°36'0 0.0
2016-Jun-23 14:28N 39°16' W 076°36'0 0.0
2016-Jun-23 13:31N 39°16' W 076°36'0 0.0
2016-Jun-23 12:31N 39°16' W 076°36'2 1.9
2016-Jun-23 11:33N 39°15' W 076°34'1313.0
2016-Jun-23 10:33N 39°05' W 076°24'2019.5
2016-Jun-23 09:33N 38°45' W 076°26'2120.8
2016-Jun-23 08:33N 38°25' W 076°21'2019.9
2016-Jun-23 07:33N 38°06' W 076°13'6319.5
2016-Jun-23 04:19N 37°03' W 076°05'1317.6
2016-Jun-23 03:33N 36°54' W 075°53'39318.2
2016-Jun-22 06:00N 34°06' W 068°36'71 1.5 220 / 281019.810.8 22.517.224.0
2016-Jun-20 05:00N 33°36' W 067°18'40719.9 360 / 211017.510.8 21.016.424.4
2016-Jun-19 08:33N 36°27' W 074°49'2121.1
2016-Jun-19 07:33N 36°36' W 075°13'4020.1
2016-Jun-19 05:33N 36°55' W 075°57'2215.9
2016-Jun-19 04:11N 37°15' W 076°08'1117.6
2016-Jun-19 03:32N 37°26' W 076°05'3716.9
2016-Jun-19 01:23N 38°02' W 076°13'5218.4
2016-Jun-18 22:33N 38°54' W 076°23'1413.8
2016-Jun-18 21:34N 39°08' W 076°24'1111.3
2016-Jun-18 20:34N 39°15' W 076°34'1 1.2
2016-Jun-18 19:28N 39°16' W 076°36'0 0.0
2016-Jun-18 18:31N 39°16' W 076°36'0 0.0
2016-Jun-18 17:31N 39°16' W 076°36'0 0.0
2016-Jun-18 16:31N 39°16' W 076°36'0 0.0
2016-Jun-18 15:31N 39°16' W 076°36'0 0.0
2016-Jun-18 14:31N 39°16' W 076°36'0 0.0
2016-Jun-18 13:31N 39°16' W 076°36'0 0.0
2016-Jun-18 12:28N 39°16' W 076°36'0 0.0
2016-Jun-18 11:31N 39°16' W 076°36'0 0.4
2016-Jun-18 10:33N 39°16' W 076°36'8 7.9
2016-Jun-18 09:33N 39°11' W 076°27'1110.6
2016-Jun-18 08:34N 39°01' W 076°23'1413.9
2016-Jun-18 07:34N 38°47' W 076°25'1414.3
2016-Jun-18 06:33N 38°33' W 076°26'1514.8
2016-Jun-18 05:33N 38°19' W 076°18'1614.8
2016-Jun-18 04:30N 38°04' W 076°13'1917.8
2016-Jun-18 03:27N 37°46' W 076°11'1817.0
2016-Jun-18 02:23N 37°29' W 076°04'3016.5
2016-Jun-18 00:33N 36°58' W 075°60'13713.1
2016-Jun-17 14:03N 34°44' W 075°26'1114.5
2016-Jun-17 13:20N 34°36' W 075°34'1114.6
2016-Jun-17 12:33N 34°26' W 075°42'7514.8
2016-Jun-17 07:30N 33°26' W 076°35'1414.7
2016-Jun-17 06:33N 33°14' W 076°44'2214.1
2016-Jun-17 05:00N 32°54' W 076°54'   240 / 191006.910.8 27.025.629.2
Track history (hours):
 
Tides and Currents Weather Stations Pressure Air Temp Water Temp Dewpoint Dewpoint Depression Visibility Wind Speed Wind Dir Waves Ship Positions

Grandeur Of The Seas

Operator: Royal Caribbean Cruises Ltd

Last reported at 2016-Jun-26 23:17 UTC. Time now 2016-Jun-27 05:58 UTC.
Position N 43°28' W 069°54'.

Type: Passenger vessel. MMSI: 311315000.

Date/timePositionNaut miles runAvg speedWind from/ knotsBaromVisibWave heightAir tempDewpointWater temp
2016-Jun-26 23:17N 43°28' W 069°54'19 6.9
2016-Jun-26 20:32N 43°40' W 070°15'0 0.0
2016-Jun-26 19:32N 43°40' W 070°15'0 0.0
2016-Jun-26 17:26N 43°40' W 070°15'15 2.1
2016-Jun-26 10:10N 43°27' W 070°02'914.5
2016-Jun-26 09:33N 43°19' W 069°58'2713.7
2016-Jun-26 07:33N 42°52' W 070°03'1514.5
2016-Jun-26 06:34N 42°39' W 070°12'1514.9
2016-Jun-26 05:34N 42°25' W 070°20'1312.9
2016-Jun-26 04:33N 42°19' W 070°35'1414.4
2016-Jun-26 03:33N 42°23' W 070°54'6 5.7
2016-Jun-26 02:31N 42°21' W 071°02'0 0.0
2016-Jun-26 01:31N 42°21' W 071°02'0 0.0
2016-Jun-26 00:31N 42°21' W 071°02'0 0.0
2016-Jun-25 23:31N 42°21' W 071°02'0 0.0
2016-Jun-25 22:31N 42°21' W 071°02'0 0.0
2016-Jun-25 21:31N 42°21' W 071°02'0 0.0
2016-Jun-25 20:31N 42°21' W 071°02'0 0.0
2016-Jun-25 19:31N 42°21' W 071°02'0 0.0
2016-Jun-25 18:31N 42°21' W 071°02'0 0.0
2016-Jun-25 17:28N 42°21' W 071°02'0 0.0
2016-Jun-25 16:31N 42°21' W 071°02'0 0.0
2016-Jun-25 15:31N 42°21' W 071°02'0 0.0
2016-Jun-25 14:31N 42°21' W 071°02'0 0.3
2016-Jun-25 13:33N 42°21' W 071°01'9 8.5
2016-Jun-25 12:33N 42°24' W 070°50'1616.3
2016-Jun-25 11:34N 42°21' W 070°29'1818.3
2016-Jun-25 10:33N 42°19' W 070°04'1818.2
2016-Jun-25 09:34N 42°05' W 069°50'1313.0
2016-Jun-25 08:33N 41°53' W 069°42'1010.1
2016-Jun-25 07:34N 41°44' W 069°36'10 9.9
2016-Jun-25 06:33N 41°35' W 069°30'10 9.9
2016-Jun-25 05:33N 41°26' W 069°24'916.5
2016-Jun-25 05:00N 41°18' W 069°18'3 4.7 100 / 121020.710.8 14.513.716.8
2016-Jun-25 04:17N 41°15' W 069°16'37518.5
2016-Jun-24 08:00N 37°06' W 075°18'6710.3 260 / 181011.310.8 22.519.623.7
2016-Jun-24 01:27N 37°58' W 076°11'5318.4
2016-Jun-23 22:33N 38°51' W 076°24'1615.5
2016-Jun-23 21:33N 39°06' W 076°24'1211.9
2016-Jun-23 20:33N 39°15' W 076°34'2 1.8
2016-Jun-23 19:31N 39°16' W 076°36'0 0.0
2016-Jun-23 18:31N 39°16' W 076°36'0 0.0
2016-Jun-23 17:31N 39°16' W 076°36'0 0.0
2016-Jun-23 16:31N 39°16' W 076°36'0 0.0
2016-Jun-23 15:31N 39°16' W 076°36'0 0.0
2016-Jun-23 14:28N 39°16' W 076°36'0 0.0
2016-Jun-23 13:31N 39°16' W 076°36'0 0.0
2016-Jun-23 12:31N 39°16' W 076°36'2 1.9
2016-Jun-23 11:33N 39°15' W 076°34'1313.0
2016-Jun-23 10:33N 39°05' W 076°24'2019.5
2016-Jun-23 09:33N 38°45' W 076°26'2120.8
2016-Jun-23 08:33N 38°25' W 076°21'2019.9
2016-Jun-23 07:33N 38°06' W 076°13'6319.5
2016-Jun-23 04:19N 37°03' W 076°05'1317.6
2016-Jun-23 03:33N 36°54' W 075°53'39318.2
2016-Jun-22 06:00N 34°06' W 068°36'71 1.5 220 / 281019.810.8 22.517.224.0
2016-Jun-20 05:00N 33°36' W 067°18'40719.9 360 / 211017.510.8 21.016.424.4
2016-Jun-19 08:33N 36°27' W 074°49'2121.1
2016-Jun-19 07:33N 36°36' W 075°13'4020.1
2016-Jun-19 05:33N 36°55' W 075°57'2215.9
2016-Jun-19 04:11N 37°15' W 076°08'1117.6
2016-Jun-19 03:32N 37°26' W 076°05'3716.9
2016-Jun-19 01:23N 38°02' W 076°13'5218.4
2016-Jun-18 22:33N 38°54' W 076°23'1413.8
2016-Jun-18 21:34N 39°08' W 076°24'1111.3
2016-Jun-18 20:34N 39°15' W 076°34'1 1.2
2016-Jun-18 19:28N 39°16' W 076°36'0 0.0
2016-Jun-18 18:31N 39°16' W 076°36'0 0.0
2016-Jun-18 17:31N 39°16' W 076°36'0 0.0
2016-Jun-18 16:31N 39°16' W 076°36'0 0.0
2016-Jun-18 15:31N 39°16' W 076°36'0 0.0
2016-Jun-18 14:31N 39°16' W 076°36'0 0.0
2016-Jun-18 13:31N 39°16' W 076°36'0 0.0
2016-Jun-18 12:28N 39°16' W 076°36'0 0.0
2016-Jun-18 11:31N 39°16' W 076°36'0 0.4
2016-Jun-18 10:33N 39°16' W 076°36'8 7.9
2016-Jun-18 09:33N 39°11' W 076°27'1110.6
2016-Jun-18 08:34N 39°01' W 076°23'1413.9
2016-Jun-18 07:34N 38°47' W 076°25'1414.3
2016-Jun-18 06:33N 38°33' W 076°26'1514.8
2016-Jun-18 05:33N 38°19' W 076°18'1614.8
2016-Jun-18 04:30N 38°04' W 076°13'1917.8
2016-Jun-18 03:27N 37°46' W 076°11'1817.0
2016-Jun-18 02:23N 37°29' W 076°04'3016.5
2016-Jun-18 00:33N 36°58' W 075°60'13713.1
2016-Jun-17 14:03N 34°44' W 075°26'1114.5
2016-Jun-17 13:20N 34°36' W 075°34'1114.6
2016-Jun-17 12:33N 34°26' W 075°42'7514.8
2016-Jun-17 07:30N 33°26' W 076°35'1414.7
2016-Jun-17 06:33N 33°14' W 076°44'2214.1
2016-Jun-17 05:00N 32°54' W 076°54'   240 / 191006.910.8 27.025.629.2

Dump ship's entire track history